createdAt,value
2022-10-12T00:01:16.190Z,101250.98
2022-10-12T00:03:43.954Z,101253.59
2022-10-12T00:06:21.293Z,101251.67
2022-10-12T00:08:50.619Z,101254.03
2022-10-12T00:11:22.864Z,101249.14
2022-10-12T00:13:50.557Z,101254.27
2022-10-12T00:16:20.333Z,101255.34
2022-10-12T00:18:56.723Z,101252.23
2022-10-12T00:21:27.564Z,101250.52
2022-10-12T00:24:01.915Z,101258.45
2022-10-12T00:26:29.928Z,101256.09
2022-10-12T00:29:00.145Z,101258.92
2022-10-12T00:31:31.495Z,101255.14
2022-10-12T00:34:01.954Z,101256.58
2022-10-12T00:36:32.594Z,101257.08
2022-10-12T00:39:03.491Z,101254.61
2022-10-12T00:41:37.761Z,101254.78
2022-10-12T00:44:42.502Z,101253.23
2022-10-12T00:47:21.002Z,101252.04
2022-10-12T00:49:57.821Z,101258.29
2022-10-12T00:52:42.166Z,101258.80
2022-10-12T00:55:19.935Z,101261.79
2022-10-12T00:57:51.698Z,101257.05
2022-10-12T01:00:20.550Z,101261.40
2022-10-12T01:02:51.718Z,101258.49
2022-10-12T01:05:21.529Z,101258.48
2022-10-12T01:07:53.538Z,101253.91
2022-10-12T01:10:21.545Z,101259.45
2022-10-12T01:12:50.645Z,101262.39
2022-10-12T01:15:18.651Z,101259.09
2022-10-12T01:18:05.248Z,101259.31
2022-10-12T01:20:48.349Z,101255.15
2022-10-12T01:23:17.090Z,101259.39
2022-10-12T01:26:29.258Z,101256.06
2022-10-12T01:29:15.996Z,101257.00
2022-10-12T01:31:49.838Z,101260.02
2022-10-12T01:34:29.009Z,101256.80
2022-10-12T01:37:29.267Z,101261.11
2022-10-12T01:40:00.939Z,101259.55
2022-10-12T01:42:33.545Z,101260.50
2022-10-12T01:45:11.224Z,101260.18
2022-10-12T01:47:40.417Z,101262.44
2022-10-12T01:50:12.384Z,101263.00
2022-10-12T01:52:55.682Z,101257.76
2022-10-12T01:55:23.962Z,101257.17
2022-10-12T01:58:19.312Z,101255.56
2022-10-12T02:01:16.671Z,101255.20
2022-10-12T02:03:58.550Z,101248.34
2022-10-12T02:06:33.298Z,101248.10
2022-10-12T02:09:26.662Z,101249.40
2022-10-12T02:11:58.631Z,101253.70
2022-10-12T02:14:30.785Z,101256.63
2022-10-12T02:16:59.878Z,101253.46
2022-10-12T02:19:31.841Z,101256.24
2022-10-12T02:22:05.035Z,101258.89
2022-10-12T02:24:37.402Z,101261.79
2022-10-12T02:27:05.429Z,101260.06
2022-10-12T02:29:39.486Z,101258.15
2022-10-12T02:32:33.552Z,101259.60
2022-10-12T02:35:21.484Z,101262.73
2022-10-12T02:37:51.575Z,101266.27
2022-10-12T02:40:39.306Z,101267.51
2022-10-12T02:43:19.926Z,101263.55
2022-10-12T02:45:48.706Z,101264.98
2022-10-12T02:48:20.648Z,101264.96
2022-10-12T02:50:49.812Z,101264.23
2022-10-12T02:53:22.385Z,101263.42
2022-10-12T02:55:54.641Z,101260.09
2022-10-12T02:58:26.244Z,101256.95
2022-10-12T03:00:54.112Z,101254.88
2022-10-12T03:03:24.653Z,101256.91
2022-10-12T03:05:52.997Z,101253.95
2022-10-12T03:08:20.903Z,101251.50
2022-10-12T03:10:48.725Z,101251.91
2022-10-12T03:13:17.519Z,101254.77
2022-10-12T03:15:45.479Z,101262.33
2022-10-12T03:18:14.233Z,101258.04
2022-10-12T03:20:42.248Z,101258.69
2022-10-12T03:23:11.312Z,101260.39
2022-10-12T03:25:39.168Z,101261.24
2022-10-12T03:28:07.925Z,101260.96
2022-10-12T03:30:36.752Z,101257.74
2022-10-12T03:33:06.268Z,101260.88
2022-10-12T03:35:34.539Z,101263.11
2022-10-12T03:38:02.457Z,101262.94
2022-10-12T03:40:31.247Z,101265.59
2022-10-12T03:42:59.037Z,101265.85
2022-10-12T03:45:28.019Z,101264.45
2022-10-12T03:47:58.180Z,101266.45
2022-10-12T03:50:30.669Z,101263.58
2022-10-12T03:52:58.618Z,101264.29
2022-10-12T03:55:27.148Z,101264.86
2022-10-12T03:57:55.201Z,101261.51
2022-10-12T04:00:26.664Z,101264.13
2022-10-12T04:02:55.991Z,101261.48
2022-10-12T04:05:24.655Z,101261.08
2022-10-12T04:07:52.757Z,101262.30
2022-10-12T04:10:21.811Z,101265.40
2022-10-12T04:12:50.311Z,101265.52
2022-10-12T04:15:20.092Z,101264.69
2022-10-12T04:17:47.949Z,101271.20
2022-10-12T04:20:15.823Z,101268.10
2022-10-12T04:22:44.659Z,101268.64
2022-10-12T04:25:12.550Z,101275.11
2022-10-12T04:27:40.980Z,101274.33
2022-10-12T04:30:11.541Z,101272.93
2022-10-12T04:32:41.889Z,101274.33
2022-10-12T04:35:09.708Z,101276.23
2022-10-12T04:37:37.877Z,101273.77
2022-10-12T04:40:07.477Z,101274.05
2022-10-12T04:42:35.338Z,101276.67
2022-10-12T04:45:03.273Z,101274.79
2022-10-12T04:47:31.075Z,101277.10
2022-10-12T04:49:59.782Z,101280.66
2022-10-12T04:52:27.551Z,101280.97
2022-10-12T04:54:55.607Z,101278.23
2022-10-12T04:57:23.992Z,101277.38
2022-10-12T04:59:51.942Z,101279.85
2022-10-12T05:02:19.906Z,101283.73
2022-10-12T05:04:47.961Z,101278.85
2022-10-12T05:07:16.965Z,101280.08
2022-10-12T05:09:44.747Z,101288.05
2022-10-12T05:12:13.163Z,101288.66
2022-10-12T05:14:41.001Z,101286.59
2022-10-12T05:17:08.894Z,101288.96
2022-10-12T05:19:37.118Z,101288.14
2022-10-12T05:22:05.327Z,101288.95
2022-10-12T05:24:33.210Z,101284.16
2022-10-12T05:27:01.290Z,101284.15
2022-10-12T05:29:29.073Z,101284.77
2022-10-12T05:31:56.982Z,101288.85
2022-10-12T05:34:25.707Z,101289.20
2022-10-12T05:36:54.474Z,101289.90
2022-10-12T05:39:22.572Z,101289.16
2022-10-12T05:41:55.951Z,101285.72
2022-10-12T05:44:23.780Z,101291.05
2022-10-12T05:46:51.652Z,101291.77
2022-10-12T05:49:19.913Z,101292.00
2022-10-12T05:51:48.493Z,101294.15
2022-10-12T05:54:19.599Z,101296.01
2022-10-12T05:56:48.588Z,101296.65
2022-10-12T06:15:10.347Z,101306.77
2022-10-12T06:17:38.450Z,101308.54
2022-10-12T06:20:08.392Z,101311.21
2022-10-12T06:22:42.601Z,101311.96
2022-10-12T06:25:10.545Z,101313.25
2022-10-12T06:27:38.709Z,101313.21
2022-10-12T06:30:07.270Z,101316.42
2022-10-12T06:32:36.389Z,101321.64
2022-10-12T06:35:08.125Z,101321.65
2022-10-12T06:37:58.742Z,101321.20
2022-10-12T06:40:27.707Z,101313.67
2022-10-12T06:42:58.587Z,101314.82
2022-10-12T06:45:41.002Z,101317.23
2022-10-12T06:48:18.251Z,101319.16
2022-10-12T06:55:51.124Z,101321.57
2022-10-12T06:58:38.968Z,101324.66
2022-10-12T07:01:29.359Z,101328.20
2022-10-12T07:04:22.853Z,101328.08
2022-10-12T07:06:56.512Z,101326.30
2022-10-12T07:10:04.633Z,101323.49
2022-10-12T07:12:38.520Z,101323.71
2022-10-12T07:15:30.740Z,101327.20
2022-10-12T07:18:26.964Z,101327.39
2022-10-12T07:21:17.430Z,101327.27
2022-10-12T07:23:46.119Z,101329.66
2022-10-12T07:29:42.334Z,101324.80
2022-10-12T07:30:41.969Z,101328.03
2022-10-12T07:33:30.413Z,101325.96
2022-10-12T07:36:13.338Z,101324.98
2022-10-12T07:39:25.682Z,101320.91
2022-10-12T07:42:05.091Z,101327.29
2022-10-12T07:44:34.443Z,101330.12
2022-10-12T07:47:24.103Z,101330.44
2022-10-12T07:49:59.821Z,101323.48
2022-10-12T07:52:32.281Z,101328.27
2022-10-12T07:55:21.460Z,101327.35
2022-10-12T07:58:05.147Z,101329.14
2022-10-12T08:00:33.185Z,101331.30
2022-10-12T08:06:01.752Z,101325.26
2022-10-12T08:08:43.401Z,101323.15
2022-10-12T08:11:25.680Z,101321.48
2022-10-12T08:13:52.782Z,101325.13
2022-10-12T08:16:43.530Z,101324.48
2022-10-12T08:19:12.743Z,101323.22
2022-10-12T08:21:43.326Z,101320.48
2022-10-12T08:24:18.797Z,101315.59
2022-10-12T08:26:49.412Z,101314.51
2022-10-12T08:29:18.540Z,101315.46
2022-10-12T08:31:53.858Z,101314.90
2022-10-12T08:34:36.963Z,101321.09
2022-10-12T08:37:32.760Z,101316.21
2022-10-12T08:40:30.169Z,101319.05
2022-10-12T08:43:14.265Z,101317.37
2022-10-12T08:46:13.656Z,101321.69
2022-10-12T08:48:53.467Z,101314.63
2022-10-12T08:51:35.277Z,101317.65
2022-10-12T08:54:11.259Z,101317.98
2022-10-12T08:56:41.702Z,101314.27
2022-10-12T08:59:30.939Z,101313.90
2022-10-12T09:02:37.696Z,101303.67
2022-10-12T09:08:44.377Z,101302.73
2022-10-12T09:11:49.897Z,101301.42
2022-10-12T09:14:54.790Z,101300.13
2022-10-12T09:18:08.004Z,101298.88
2022-10-12T09:20:54.368Z,101302.76
2022-10-12T09:23:53.010Z,101303.30
2022-10-12T09:26:41.781Z,101303.84
2022-10-12T09:29:20.483Z,101300.30
2022-10-12T09:32:49.196Z,101300.43
2022-10-12T09:36:14.844Z,101300.16
2022-10-12T09:38:39.329Z,101295.67
2022-10-12T09:41:33.896Z,101297.89
2022-10-12T09:44:24.922Z,101294.36
2022-10-12T09:47:06.430Z,101293.82
2022-10-12T09:50:01.328Z,101293.11
2022-10-12T09:52:36.005Z,101298.69
2022-10-12T09:59:07.138Z,101302.13
2022-10-12T10:01:46.739Z,101300.82
2022-10-12T10:04:26.934Z,101294.15
2022-10-12T10:07:48.502Z,101292.52
2022-10-12T10:13:51.662Z,101286.60
2022-10-12T10:16:38.018Z,101283.86
2022-10-12T10:19:32.039Z,101280.80
2022-10-12T10:22:16.121Z,101280.14
2022-10-12T10:25:48.681Z,101279.98
2022-10-12T10:28:31.723Z,101279.13
2022-10-12T10:31:10.804Z,101278.41
2022-10-12T10:34:16.340Z,101277.40
2022-10-12T10:36:56.195Z,101274.55
2022-10-12T10:40:07.997Z,101270.85
2022-10-12T10:42:44.706Z,101268.13
2022-10-12T10:45:46.906Z,101267.09
2022-10-12T10:52:28.380Z,101261.04
2022-10-12T10:54:30.409Z,101256.77
2022-10-12T10:57:29.883Z,101260.02
2022-10-12T11:00:33.313Z,101254.36
2022-10-12T11:03:25.848Z,101258.17
2022-10-12T11:06:17.069Z,101258.36
2022-10-12T11:09:31.024Z,101254.85
2022-10-12T11:15:37.524Z,101247.60
2022-10-12T11:18:40.647Z,101239.02
2022-10-12T11:21:18.371Z,101241.66
2022-10-12T11:24:26.789Z,101236.42
2022-10-12T11:27:53.623Z,101236.25
2022-10-12T11:30:58.164Z,101233.48
2022-10-12T11:34:38.035Z,101233.23
2022-10-12T11:38:04.273Z,101226.59
2022-10-12T11:41:13.771Z,101227.05
2022-10-12T11:47:54.676Z,101219.33
2022-10-12T11:51:08.119Z,101220.20
2022-10-12T11:54:22.549Z,101221.23
2022-10-12T11:56:56.830Z,101219.19
2022-10-12T12:00:07.996Z,101216.77
2022-10-12T12:02:57.726Z,101213.67
2022-10-12T12:05:41.490Z,101213.86
2022-10-12T12:08:47.810Z,101210.52
2022-10-12T12:15:47.855Z,101206.69
2022-10-12T12:18:22.070Z,101208.73
2022-10-12T12:21:22.081Z,101206.90
2022-10-12T12:27:45.379Z,101199.41
2022-10-12T12:30:33.010Z,101197.02
2022-10-12T12:33:21.757Z,101199.23
2022-10-12T12:36:07.369Z,101198.92
2022-10-12T12:38:47.979Z,101194.35
2022-10-12T12:41:21.061Z,101188.27
2022-10-12T12:43:56.948Z,101191.89
2022-10-12T12:46:48.620Z,101186.48
2022-10-12T12:49:42.363Z,101188.99
2022-10-12T12:52:29.550Z,101186.95
2022-10-12T12:55:06.925Z,101182.16
2022-10-12T12:57:59.585Z,101179.27
2022-10-12T13:03:39.702Z,101178.27
2022-10-12T13:06:45.308Z,101178.08
2022-10-12T13:09:46.703Z,101173.67
2022-10-12T13:12:33.654Z,101171.69
2022-10-12T13:15:40.484Z,101176.64
2022-10-12T13:18:34.566Z,101167.48
2022-10-12T13:21:10.187Z,101162.06
2022-10-12T13:23:38.040Z,101167.60
2022-10-12T13:26:09.402Z,101169.17
2022-10-12T13:28:41.100Z,101165.89
2022-10-12T13:31:43.822Z,101162.11
2022-10-12T13:34:42.360Z,101153.71
2022-10-12T13:37:17.432Z,101155.00
2022-10-12T13:39:47.075Z,101156.64
2022-10-12T13:42:18.800Z,101153.77
2022-10-12T13:44:47.361Z,101151.22
2022-10-12T13:47:27.328Z,101149.16
2022-10-12T13:49:57.003Z,101147.83
2022-10-12T13:52:34.525Z,101147.13
2022-10-12T13:55:16.940Z,101142.77
2022-10-12T13:57:56.460Z,101139.29
2022-10-12T14:00:27.902Z,101135.42
2022-10-12T14:03:00.294Z,101135.95
2022-10-12T14:05:31.103Z,101133.94
2022-10-12T14:08:03.131Z,101133.58
2022-10-12T14:10:34.299Z,101134.52
2022-10-12T14:13:15.522Z,101132.98
2022-10-12T14:15:43.554Z,101132.07
2022-10-12T14:18:57.102Z,101133.22
2022-10-12T14:37:29.844Z,101120.75
2022-10-12T14:40:00.840Z,101124.45
2022-10-12T14:42:33.407Z,101122.83
2022-10-12T14:45:04.963Z,101122.98
2022-10-12T14:47:38.193Z,101119.58
2022-10-12T14:50:08.810Z,101113.88
2022-10-12T14:52:44.800Z,101114.49
2022-10-12T14:55:18.347Z,101112.77
2022-10-12T14:57:46.880Z,101109.70
2022-10-12T15:00:20.179Z,101109.52
2022-10-12T15:02:50.740Z,101107.73
2022-10-12T15:05:21.523Z,101109.15
2022-10-12T15:07:50.390Z,101106.01
2022-10-12T15:10:22.602Z,101106.84
2022-10-12T15:12:51.525Z,101107.61
2022-10-12T15:15:37.658Z,101106.02
2022-10-12T15:18:05.724Z,101105.83
2022-10-12T15:20:34.642Z,101101.92
2022-10-12T15:23:03.119Z,101099.28
2022-10-12T15:25:59.838Z,101102.47
2022-10-12T15:28:29.880Z,101094.29
2022-10-12T15:33:46.849Z,101092.54
2022-10-12T15:36:14.620Z,101093.57
2022-10-12T15:38:42.413Z,101089.33
2022-10-12T15:41:16.624Z,101090.61
2022-10-12T15:43:45.829Z,101087.40
2022-10-12T15:46:13.617Z,101091.57
2022-10-12T15:48:41.844Z,101089.23
2022-10-12T15:51:17.433Z,101090.30
2022-10-12T15:53:45.239Z,101087.88
2022-10-12T15:56:14.719Z,101087.17
2022-10-12T15:58:43.093Z,101086.14
2022-10-12T16:01:16.038Z,101085.84
2022-10-12T16:03:44.935Z,101086.05
2022-10-12T16:06:12.986Z,101079.19
2022-10-12T16:08:40.891Z,101077.69
2022-10-12T16:11:12.931Z,101078.91
2022-10-12T16:13:46.871Z,101085.44
2022-10-12T16:16:18.929Z,101083.83
2022-10-12T16:18:46.834Z,101085.23
2022-10-12T16:21:14.695Z,101090.62
2022-10-12T16:23:42.566Z,101088.30
2022-10-12T16:26:12.756Z,101091.21
2022-10-12T16:28:40.822Z,101085.65
2022-10-12T16:31:12.365Z,101085.52
2022-10-12T16:33:41.418Z,101086.79
2022-10-12T16:36:11.422Z,101083.14
2022-10-12T16:38:39.344Z,101086.43
2022-10-12T16:41:16.254Z,101080.24
2022-10-12T16:43:44.601Z,101082.80
2022-10-12T16:46:12.829Z,101081.73
2022-10-12T16:48:40.818Z,101082.38
2022-10-12T16:51:10.392Z,101084.76
2022-10-12T16:53:38.458Z,101089.17
2022-10-12T16:56:06.725Z,101092.53
2022-10-12T16:58:34.915Z,101087.52
2022-10-12T17:01:11.045Z,101093.77
2022-10-12T17:03:39.169Z,101092.17
2022-10-12T17:06:07.644Z,101092.91
2022-10-12T17:08:36.850Z,101093.88
2022-10-12T17:11:10.027Z,101096.15
2022-10-12T17:13:38.597Z,101093.29
2022-10-12T17:16:33.816Z,101094.69
2022-10-12T17:19:01.995Z,101095.79
2022-10-12T17:21:29.920Z,101094.33
2022-10-12T17:23:58.924Z,101096.48
2022-10-12T17:26:30.826Z,101095.84
2022-10-12T17:29:00.589Z,101101.30
2022-10-12T17:31:28.807Z,101100.83
2022-10-12T17:33:57.633Z,101103.98
2022-10-12T17:36:28.678Z,101097.35
2022-10-12T17:38:57.873Z,101099.00
2022-10-12T17:41:26.608Z,101098.83
2022-10-12T17:43:55.021Z,101096.86
2022-10-12T17:46:23.067Z,101099.84
2022-10-12T17:48:51.253Z,101102.59
2022-10-12T17:51:19.377Z,101101.42
2022-10-12T17:53:47.355Z,101098.58
2022-10-12T17:56:15.944Z,101096.51
2022-10-12T17:58:46.694Z,101099.71
2022-10-12T18:01:16.257Z,101096.21
2022-10-12T18:03:46.691Z,101098.33
2022-10-12T18:06:16.958Z,101096.98
2022-10-12T18:08:44.997Z,101096.82
2022-10-12T18:11:13.587Z,101096.98
2022-10-12T18:13:46.454Z,101096.90
2022-10-12T18:16:16.611Z,101093.27
2022-10-12T18:18:44.832Z,101095.23
2022-10-12T18:21:14.095Z,101096.99
2022-10-12T18:23:41.927Z,101097.48
2022-10-12T18:26:11.082Z,101097.30
2022-10-12T18:28:39.625Z,101104.85
2022-10-12T18:31:07.661Z,101104.98
2022-10-12T18:33:35.482Z,101105.92
2022-10-12T18:36:04.962Z,101109.26
2022-10-12T18:38:33.958Z,101112.19
2022-10-12T18:41:04.195Z,101110.83
2022-10-12T18:43:32.500Z,101111.14
2022-10-12T18:46:03.642Z,101112.80
2022-10-12T18:48:31.469Z,101107.70
2022-10-12T18:51:15.910Z,101104.83
2022-10-12T18:53:43.779Z,101104.73
2022-10-12T18:56:12.717Z,101110.66
2022-10-12T18:58:41.966Z,101105.38
2022-10-12T19:01:12.013Z,101105.42
2022-10-12T19:03:40.920Z,101105.27
2022-10-12T19:06:15.456Z,101105.41
2022-10-12T19:08:44.192Z,101106.23
2022-10-12T19:11:13.414Z,101103.19
2022-10-12T19:13:41.594Z,101103.34
2022-10-12T19:16:15.927Z,101103.70
2022-10-12T19:18:44.147Z,101101.97
2022-10-12T19:21:17.967Z,101098.34
2022-10-12T19:23:46.540Z,101095.10
2022-10-12T19:26:19.572Z,101099.13
2022-10-12T19:28:48.667Z,101100.80
2022-10-12T19:31:20.588Z,101096.59
2022-10-12T19:33:48.540Z,101094.95
2022-10-12T19:36:18.534Z,101097.67
2022-10-12T19:38:46.750Z,101098.55
2022-10-12T19:41:14.680Z,101094.10
2022-10-12T19:43:43.373Z,101095.20
2022-10-12T19:46:12.179Z,101093.37
2022-10-12T19:48:42.149Z,101089.83
2022-10-12T19:51:12.371Z,101090.92
2022-10-12T19:53:40.851Z,101089.46
2022-10-12T19:56:11.495Z,101089.19
2022-10-12T19:58:39.511Z,101088.12
2022-10-12T20:01:10.791Z,101088.46
2022-10-12T20:03:40.483Z,101084.19
2022-10-12T20:06:10.220Z,101088.05
2022-10-12T20:08:40.097Z,101078.80
2022-10-12T20:11:09.991Z,101077.21
2022-10-12T20:13:39.966Z,101076.66
2022-10-12T20:16:08.205Z,101075.73
2022-10-12T20:18:36.260Z,101070.01
2022-10-12T20:21:08.720Z,101071.19
2022-10-12T20:23:37.989Z,101067.71
2022-10-12T20:26:08.490Z,101072.61
2022-10-12T20:28:37.536Z,101070.63
2022-10-12T20:31:06.484Z,101069.67
2022-10-12T20:33:38.180Z,101068.91
2022-10-12T20:36:22.074Z,101068.48
2022-10-12T20:38:50.333Z,101068.73
2022-10-12T20:41:18.742Z,101064.56
2022-10-12T20:43:46.567Z,101067.38
2022-10-12T20:46:16.039Z,101066.59
2022-10-12T20:48:44.792Z,101066.77
2022-10-12T20:51:19.248Z,101068.96
2022-10-12T20:53:47.165Z,101066.82
2022-10-12T20:56:14.990Z,101071.56
2022-10-12T20:58:42.819Z,101071.09
2022-10-12T21:01:13.314Z,101070.70
2022-10-12T21:03:42.242Z,101070.96
2022-10-12T21:06:12.458Z,101067.23
2022-10-12T21:08:40.582Z,101055.50
2022-10-12T21:11:10.018Z,101058.79
2022-10-12T21:13:40.967Z,101057.54
2022-10-12T21:16:10.515Z,101059.89
2022-10-12T21:18:39.123Z,101059.20
2022-10-12T21:21:12.793Z,101055.67
2022-10-12T21:23:41.452Z,101057.40
2022-10-12T21:26:11.416Z,101061.13
2022-10-12T21:28:39.339Z,101063.02
2022-10-12T21:31:07.244Z,101061.16
2022-10-12T21:33:36.438Z,101064.84
2022-10-12T21:36:08.880Z,101067.57
2022-10-12T21:38:36.834Z,101066.27
2022-10-12T21:41:05.654Z,101064.14
2022-10-12T21:43:34.109Z,101062.48
2022-10-12T21:46:04.180Z,101063.40
2022-10-12T21:48:32.898Z,101064.64
2022-10-12T21:51:01.874Z,101059.38
2022-10-12T21:53:30.711Z,101059.23
2022-10-12T21:55:58.456Z,101060.42
2022-10-12T21:58:26.270Z,101062.77
2022-10-12T22:01:04.351Z,101060.99
2022-10-12T22:03:32.718Z,101059.38
2022-10-12T22:06:00.571Z,101062.28
2022-10-12T22:08:28.421Z,101064.45
2022-10-12T22:10:56.848Z,101066.60
2022-10-12T22:13:24.716Z,101061.65
2022-10-12T22:16:07.239Z,101062.48
2022-10-12T22:18:35.083Z,101055.99
2022-10-12T22:21:08.454Z,101058.76
2022-10-12T22:23:36.209Z,101054.90
2022-10-12T22:26:19.915Z,101056.08
2022-10-12T22:28:54.147Z,101051.76
2022-10-12T22:31:23.560Z,101050.63
2022-10-12T22:33:52.376Z,101049.70
2022-10-12T22:36:20.222Z,101048.11
2022-10-12T22:38:48.028Z,101045.35
2022-10-12T22:41:18.465Z,101044.02
2022-10-12T22:43:51.097Z,101045.46
2022-10-12T22:46:19.855Z,101042.66
2022-10-12T22:48:48.117Z,101041.89
2022-10-12T22:51:21.394Z,101042.64
2022-10-12T22:53:49.308Z,101043.72
2022-10-12T22:56:18.570Z,101041.49
2022-10-12T22:58:48.872Z,101041.08
2022-10-12T23:01:30.860Z,101040.53
2022-10-12T23:03:59.267Z,101037.18
2022-10-12T23:06:27.082Z,101034.59
2022-10-12T23:08:55.438Z,101034.20
2022-10-12T23:11:25.954Z,101032.70
2022-10-12T23:13:55.593Z,101034.33
2022-10-12T23:16:26.824Z,101035.18
2022-10-12T23:19:01.413Z,101039.42
2022-10-12T23:21:30.311Z,101034.39
2022-10-12T23:23:59.464Z,101027.80
2022-10-12T23:26:29.074Z,101027.98
2022-10-12T23:28:57.583Z,101026.80
2022-10-12T23:31:27.532Z,101027.56
2022-10-12T23:34:00.866Z,101028.86
2022-10-12T23:36:29.780Z,101028.82
2022-10-12T23:39:01.647Z,101027.96
2022-10-12T23:41:29.595Z,101022.48
2022-10-12T23:43:57.601Z,101021.23
2022-10-12T23:46:25.745Z,101021.35
2022-10-12T23:48:54.777Z,101021.83
2022-10-12T23:51:22.633Z,101021.98
2022-10-12T23:53:51.427Z,101017.25
2022-10-12T23:56:19.353Z,101016.77
2022-10-12T23:58:47.109Z,101022.35
